createdAt,value
2022-11-17T00:01:19.779Z,8.00
2022-11-17T00:03:47.666Z,8.00
2022-11-17T00:06:15.272Z,8.10
2022-11-17T00:08:42.367Z,8.00
2022-11-17T00:11:09.355Z,8.00
2022-11-17T00:13:54.991Z,8.10
2022-11-17T00:16:22.582Z,8.00
2022-11-17T00:19:08.107Z,8.00
2022-11-17T00:21:35.306Z,8.00
2022-11-17T00:24:02.643Z,8.10
2022-11-17T00:26:35.005Z,8.10
2022-11-17T00:29:05.062Z,8.00
2022-11-17T00:31:52.907Z,8.10
2022-11-17T00:34:22.294Z,8.10
2022-11-17T00:36:50.151Z,8.10
2022-11-17T00:39:19.197Z,8.10
2022-11-17T00:41:46.359Z,8.10
2022-11-17T00:44:13.789Z,8.10
2022-11-17T00:46:41.801Z,8.10
2022-11-17T00:49:10.222Z,8.10
2022-11-17T00:51:37.503Z,8.10
2022-11-17T00:54:05.618Z,8.10
2022-11-17T00:56:32.822Z,8.10
2022-11-17T00:58:59.960Z,8.00
2022-11-17T01:01:27.241Z,8.00
2022-11-17T01:04:02.955Z,8.00
2022-11-17T01:06:39.407Z,7.90
2022-11-17T01:09:32.538Z,7.90
2022-11-17T01:11:59.405Z,7.90
2022-11-17T01:14:28.727Z,7.90
2022-11-17T01:16:56.574Z,7.90
2022-11-17T01:19:24.759Z,7.90
2022-11-17T01:21:51.722Z,7.80
2022-11-17T01:24:18.929Z,7.80
2022-11-17T01:26:46.797Z,7.80
2022-11-17T01:29:17.378Z,7.70
2022-11-17T01:31:45.264Z,7.60
2022-11-17T01:34:12.829Z,7.70
2022-11-17T01:37:00.637Z,7.70
2022-11-17T01:39:30.665Z,7.70
2022-11-17T01:41:58.041Z,7.60
2022-11-17T01:44:57.222Z,7.70
2022-11-17T01:47:36.418Z,7.70
2022-11-17T01:50:08.769Z,7.60
2022-11-17T01:52:38.498Z,7.60
2022-11-17T01:55:08.721Z,7.60
2022-11-17T01:58:12.641Z,7.50
2022-11-17T02:00:40.751Z,7.50
2022-11-17T02:03:07.917Z,7.50
2022-11-17T02:05:51.854Z,7.50
2022-11-17T02:08:22.386Z,7.60
2022-11-17T02:10:51.930Z,7.50
2022-11-17T02:13:23.503Z,7.50
2022-11-17T02:15:50.615Z,7.60
2022-11-17T02:18:17.995Z,7.50
2022-11-17T02:21:12.182Z,7.60
2022-11-17T02:24:27.319Z,7.60
2022-11-17T02:27:16.061Z,7.60
2022-11-17T02:30:07.892Z,7.60
2022-11-17T02:33:20.159Z,7.50
2022-11-17T02:36:04.655Z,7.50
2022-11-17T02:38:49.311Z,7.50
2022-11-17T02:41:41.102Z,7.50
2022-11-17T02:44:33.131Z,7.50
2022-11-17T02:47:12.674Z,7.50
2022-11-17T02:49:44.524Z,7.50
2022-11-17T02:52:12.532Z,7.50
2022-11-17T02:54:39.428Z,7.50
2022-11-17T02:57:06.272Z,7.50
2022-11-17T02:59:42.824Z,7.50
2022-11-17T03:02:24.757Z,7.50
2022-11-17T03:05:08.580Z,7.50
2022-11-17T03:08:08.982Z,7.50
2022-11-17T03:10:58.642Z,7.50
2022-11-17T03:13:43.684Z,7.50
2022-11-17T03:16:35.338Z,7.50
2022-11-17T03:23:24.656Z,7.50
2022-11-17T03:25:58.376Z,7.50
2022-11-17T03:28:30.707Z,7.50
2022-11-17T03:30:59.551Z,7.50
2022-11-17T03:33:29.077Z,7.50
2022-11-17T03:36:08.308Z,7.40
2022-11-17T03:38:40.606Z,7.50
2022-11-17T03:41:12.304Z,7.50
2022-11-17T03:43:41.027Z,7.50
2022-11-17T03:46:13.553Z,7.50
2022-11-17T03:48:50.181Z,7.40
2022-11-17T03:51:21.837Z,7.50
2022-11-17T03:53:49.629Z,7.50
2022-11-17T03:56:37.470Z,7.50
2022-11-17T03:59:12.509Z,7.50
2022-11-17T04:01:39.701Z,7.50
2022-11-17T04:04:06.614Z,7.50
2022-11-17T04:06:33.476Z,7.50
2022-11-17T04:09:00.342Z,7.50
2022-11-17T04:11:45.749Z,7.50
2022-11-17T04:14:31.128Z,7.50
2022-11-17T04:16:58.033Z,7.50
2022-11-17T04:19:24.945Z,7.50
2022-11-17T04:21:51.771Z,7.50
2022-11-17T04:24:18.734Z,7.40
2022-11-17T04:27:04.107Z,7.30
2022-11-17T04:29:31.017Z,7.30
2022-11-17T04:31:57.847Z,7.20
2022-11-17T04:34:24.702Z,7.20
2022-11-17T04:36:51.604Z,7.20
2022-11-17T04:39:18.621Z,7.20
2022-11-17T04:41:54.796Z,7.10
2022-11-17T04:44:27.042Z,7.10
2022-11-17T04:46:54.922Z,7.10
2022-11-17T04:49:23.774Z,7.00
2022-11-17T04:51:52.104Z,7.00
2022-11-17T04:54:21.690Z,7.00
2022-11-17T04:56:48.562Z,6.90
2022-11-17T04:59:15.521Z,6.90
2022-11-17T05:01:42.859Z,6.90
2022-11-17T05:04:12.197Z,6.90
2022-11-17T05:06:45.720Z,6.90
2022-11-17T05:09:16.923Z,6.80
2022-11-17T05:12:02.824Z,6.80
2022-11-17T05:14:30.592Z,6.80
2022-11-17T05:17:11.275Z,6.80
2022-11-17T05:19:46.761Z,6.80
2022-11-17T05:22:37.844Z,6.80
2022-11-17T05:25:05.909Z,6.80
2022-11-17T05:27:34.143Z,6.80
2022-11-17T05:30:06.405Z,6.80
2022-11-17T05:32:33.325Z,6.80
2022-11-17T05:35:00.184Z,6.80
2022-11-17T05:37:27.186Z,6.70
2022-11-17T05:39:54.046Z,6.70
2022-11-17T05:42:21.077Z,6.70
2022-11-17T05:44:48.570Z,6.70
2022-11-17T05:47:15.978Z,6.70
2022-11-17T05:49:42.860Z,6.70
2022-11-17T05:52:09.872Z,6.70
2022-11-17T05:54:36.729Z,6.60
2022-11-17T05:57:08.270Z,6.60
2022-11-17T05:59:45.942Z,6.60
2022-11-17T06:02:21.957Z,6.60
2022-11-17T06:04:52.182Z,6.70
2022-11-17T06:07:20.108Z,6.60
2022-11-17T06:09:47.707Z,6.60
2022-11-17T06:12:15.497Z,6.60
2022-11-17T06:14:42.878Z,6.50
2022-11-17T06:17:35.031Z,6.60
2022-11-17T06:20:05.070Z,6.50
2022-11-17T06:22:32.576Z,6.50
2022-11-17T06:25:01.874Z,6.60
2022-11-17T06:27:31.944Z,6.50
2022-11-17T06:30:03.457Z,6.50
2022-11-17T06:32:31.923Z,6.50
2022-11-17T06:35:00.598Z,6.50
2022-11-17T06:37:27.452Z,6.50
2022-11-17T06:39:54.347Z,6.40
2022-11-17T06:42:41.221Z,6.40
2022-11-17T06:45:08.842Z,6.40
2022-11-17T06:47:35.647Z,6.40
2022-11-17T06:50:02.929Z,6.40
2022-11-17T06:52:29.842Z,6.40
2022-11-17T06:54:56.666Z,6.30
2022-11-17T06:57:23.506Z,6.40
2022-11-17T06:59:52.468Z,6.30
2022-11-17T07:02:19.922Z,6.30
2022-11-17T07:04:46.813Z,6.30
2022-11-17T07:07:13.915Z,6.30
2022-11-17T07:09:40.853Z,6.30
2022-11-17T07:12:07.710Z,6.30
2022-11-17T07:14:34.622Z,6.40
2022-11-17T07:17:01.408Z,6.30
2022-11-17T07:19:28.226Z,6.40
2022-11-17T07:21:55.085Z,6.40
2022-11-17T07:24:21.911Z,6.40
2022-11-17T07:26:48.748Z,6.30
2022-11-17T07:29:15.631Z,6.30
2022-11-17T07:31:43.384Z,6.40
2022-11-17T07:34:10.438Z,6.30
2022-11-17T07:36:37.374Z,6.40
2022-11-17T07:39:05.887Z,6.30
2022-11-17T07:41:32.804Z,6.40
2022-11-17T07:43:59.881Z,6.40
2022-11-17T07:46:26.747Z,6.40
2022-11-17T07:48:55.012Z,6.40
2022-11-17T07:51:21.830Z,6.50
2022-11-17T07:53:48.704Z,6.40
2022-11-17T07:56:15.580Z,6.50
2022-11-17T07:58:42.669Z,6.50
2022-11-17T08:01:15.640Z,6.50
2022-11-17T08:03:43.440Z,6.50
2022-11-17T08:06:10.473Z,6.60
2022-11-17T08:08:38.361Z,6.60
2022-11-17T08:11:10.484Z,6.60
2022-11-17T08:13:38.437Z,6.70
2022-11-17T08:16:06.461Z,6.80
2022-11-17T08:18:34.287Z,6.70
2022-11-17T08:21:10.681Z,6.80
2022-11-17T08:23:38.642Z,6.80
2022-11-17T08:26:07.123Z,6.90
2022-11-17T08:28:34.536Z,6.90
2022-11-17T08:31:03.037Z,6.90
2022-11-17T08:33:30.073Z,7.00
2022-11-17T08:35:58.349Z,6.90
2022-11-17T08:38:29.079Z,6.90
2022-11-17T08:41:01.585Z,6.90
2022-11-17T08:43:28.459Z,7.00
2022-11-17T08:45:55.409Z,7.00
2022-11-17T08:48:22.486Z,7.00
2022-11-17T08:50:49.855Z,7.00
2022-11-17T08:53:19.242Z,7.00
2022-11-17T08:55:46.284Z,6.90
2022-11-17T08:58:13.606Z,6.90
2022-11-17T09:00:41.020Z,6.90
2022-11-17T09:03:12.077Z,7.00
2022-11-17T09:05:41.243Z,7.00
2022-11-17T09:08:37.828Z,7.00
2022-11-17T09:10:56.330Z,7.00
2022-11-17T09:13:23.274Z,7.00
2022-11-17T09:15:50.143Z,7.00
2022-11-17T09:18:17.173Z,7.00
2022-11-17T09:20:45.865Z,7.10
2022-11-17T09:23:13.271Z,7.10
2022-11-17T09:25:40.171Z,7.10
2022-11-17T09:28:07.110Z,7.10
2022-11-17T09:30:34.036Z,7.10
2022-11-17T09:33:01.015Z,7.10
2022-11-17T09:35:27.847Z,7.10
2022-11-17T09:37:59.750Z,7.10
2022-11-17T09:40:28.483Z,7.00
2022-11-17T09:42:57.854Z,7.10
2022-11-17T09:45:31.903Z,7.00
2022-11-17T09:48:18.575Z,7.10
2022-11-17T09:50:50.386Z,7.10
2022-11-17T09:53:22.837Z,7.10
2022-11-17T09:56:03.810Z,7.00
2022-11-17T09:58:52.919Z,7.00
2022-11-17T10:01:21.866Z,7.00
2022-11-17T10:03:51.089Z,7.00
2022-11-17T10:06:23.653Z,7.00
2022-11-17T10:09:00.642Z,7.00
2022-11-17T10:11:37.452Z,7.10
2022-11-17T10:14:15.826Z,7.00
2022-11-17T10:16:54.614Z,6.90
2022-11-17T10:19:31.300Z,7.00
2022-11-17T10:22:04.369Z,7.10
2022-11-17T10:24:39.322Z,7.10
2022-11-17T10:27:18.324Z,7.10
2022-11-17T10:30:13.868Z,7.10
2022-11-17T10:32:59.348Z,7.00
2022-11-17T10:35:28.034Z,7.00
2022-11-17T10:38:19.099Z,7.10
2022-11-17T10:40:50.353Z,7.10
2022-11-17T10:43:35.967Z,7.10
2022-11-17T10:46:17.079Z,7.10
2022-11-17T10:49:05.009Z,7.10
2022-11-17T10:51:33.900Z,7.20
2022-11-17T10:54:21.296Z,7.30
2022-11-17T10:56:51.209Z,7.30
2022-11-17T10:59:33.255Z,7.40
2022-11-17T11:02:19.997Z,7.30
2022-11-17T11:04:46.916Z,7.20
2022-11-17T11:07:22.436Z,7.20
2022-11-17T11:10:24.348Z,7.20
2022-11-17T11:13:56.366Z,7.10
2022-11-17T11:16:26.908Z,7.10
2022-11-17T11:18:53.796Z,7.20
2022-11-17T11:21:26.836Z,7.20
2022-11-17T11:24:12.616Z,7.40
2022-11-17T11:27:04.477Z,7.40
2022-11-17T11:29:50.958Z,7.50
2022-11-17T11:32:29.656Z,7.50
2022-11-17T11:35:30.773Z,7.40
2022-11-17T11:38:00.781Z,7.30
2022-11-17T11:40:37.321Z,7.30
2022-11-17T11:43:30.108Z,7.30
2022-11-17T11:46:15.232Z,7.30
2022-11-17T11:48:42.260Z,7.30
2022-11-17T11:51:15.887Z,7.30
2022-11-17T11:53:52.460Z,7.20
2022-11-17T11:56:42.817Z,7.20
2022-11-17T11:59:20.587Z,7.20
2022-11-17T12:01:53.100Z,7.30
2022-11-17T12:04:53.909Z,7.30
2022-11-17T12:07:27.404Z,7.30
2022-11-17T12:10:20.968Z,7.40
2022-11-17T12:12:48.558Z,7.40
2022-11-17T12:15:18.487Z,7.40
2022-11-17T12:17:54.686Z,7.50
2022-11-17T12:20:35.648Z,7.40
2022-11-17T12:23:14.500Z,7.40
2022-11-17T12:25:54.158Z,7.40
2022-11-17T12:28:31.301Z,7.40
2022-11-17T12:31:09.468Z,7.40
2022-11-17T12:33:52.423Z,7.40
2022-11-17T12:36:30.961Z,7.30
2022-11-17T12:39:08.995Z,7.30
2022-11-17T12:42:05.814Z,7.30
2022-11-17T12:44:38.851Z,7.30
2022-11-17T12:47:22.057Z,7.30
2022-11-17T12:50:26.612Z,7.40
2022-11-17T12:53:07.422Z,7.40
2022-11-17T12:56:05.685Z,7.50
2022-11-17T12:58:52.136Z,7.50
2022-11-17T13:01:34.516Z,7.50
2022-11-17T13:04:10.791Z,7.50
2022-11-17T13:06:37.848Z,7.60
2022-11-17T13:09:07.329Z,7.60
2022-11-17T13:11:35.199Z,7.60
2022-11-17T13:14:16.593Z,7.60
2022-11-17T13:16:50.554Z,7.60
2022-11-17T13:19:43.985Z,7.70
2022-11-17T13:22:19.065Z,7.60
2022-11-17T13:24:48.093Z,7.70
2022-11-17T13:27:29.764Z,7.70
2022-11-17T13:30:21.012Z,7.80
2022-11-17T13:32:48.154Z,7.80
2022-11-17T13:35:21.883Z,7.80
2022-11-17T13:38:19.804Z,7.70
2022-11-17T13:40:49.906Z,7.60
2022-11-17T13:43:20.595Z,7.60
2022-11-17T13:45:48.988Z,7.60
2022-11-17T13:48:35.581Z,7.70
2022-11-17T13:51:29.299Z,7.70
2022-11-17T13:54:11.202Z,7.60
2022-11-17T13:56:41.910Z,7.60
2022-11-17T13:59:27.523Z,7.60
2022-11-17T14:02:16.240Z,7.60
2022-11-17T14:05:04.295Z,7.60
2022-11-17T14:07:33.658Z,7.60
2022-11-17T14:10:22.441Z,7.60
2022-11-17T14:13:10.681Z,7.60
2022-11-17T14:15:42.275Z,7.70
2022-11-17T14:18:36.832Z,7.70
2022-11-17T14:21:16.575Z,7.60
2022-11-17T14:23:44.475Z,7.60
2022-11-17T14:26:23.470Z,7.60
2022-11-17T14:28:51.833Z,7.70
2022-11-17T14:31:19.108Z,7.70
2022-11-17T14:33:46.249Z,7.80
2022-11-17T14:36:15.972Z,7.90
2022-11-17T14:38:44.753Z,7.90
2022-11-17T14:41:11.743Z,7.90
2022-11-17T14:43:38.648Z,7.90
2022-11-17T14:46:05.644Z,7.80
2022-11-17T14:48:32.561Z,7.80
2022-11-17T14:51:00.052Z,7.70
2022-11-17T14:53:27.256Z,7.70
2022-11-17T14:55:54.129Z,7.70
2022-11-17T14:58:21.067Z,7.70
2022-11-17T15:00:48.082Z,7.70
2022-11-17T15:03:15.136Z,7.70
2022-11-17T15:05:46.152Z,7.70
2022-11-17T15:08:14.237Z,7.60
2022-11-17T15:10:45.377Z,7.60
2022-11-17T15:13:12.477Z,7.50
2022-11-17T15:15:39.570Z,7.50
2022-11-17T15:18:06.553Z,7.50
2022-11-17T15:20:33.389Z,7.50
2022-11-17T15:23:03.469Z,7.50
2022-11-17T15:25:30.732Z,7.40
2022-11-17T15:27:57.616Z,7.40
2022-11-17T15:30:25.665Z,7.30
2022-11-17T15:32:52.472Z,7.30
2022-11-17T15:35:19.349Z,7.20
2022-11-17T15:37:46.248Z,7.20
2022-11-17T15:40:19.066Z,7.30
2022-11-17T15:42:46.350Z,7.20
2022-11-17T15:45:13.295Z,7.20
2022-11-17T15:47:40.109Z,7.20
2022-11-17T15:50:07.641Z,7.20
2022-11-17T15:52:57.060Z,7.20
2022-11-17T15:55:21.454Z,7.20
2022-11-17T15:57:48.342Z,7.20
2022-11-17T16:00:15.854Z,7.30
2022-11-17T16:02:42.736Z,7.10
2022-11-17T16:05:09.696Z,7.10
2022-11-17T16:07:36.690Z,7.10
2022-11-17T16:10:04.174Z,7.10
2022-11-17T16:12:31.068Z,7.20
2022-11-17T16:14:58.303Z,7.20
2022-11-17T16:17:25.121Z,7.20
2022-11-17T16:19:52.051Z,7.20
2022-11-17T16:22:18.909Z,7.20
2022-11-17T16:24:45.822Z,7.30
2022-11-17T16:27:13.724Z,7.30
2022-11-17T16:29:40.643Z,7.40
2022-11-17T16:32:07.489Z,7.40
2022-11-17T16:34:34.404Z,7.40
2022-11-17T16:37:01.266Z,7.50
2022-11-17T16:39:28.077Z,7.50
2022-11-17T16:41:55.739Z,7.40
2022-11-17T16:44:22.701Z,7.40
2022-11-17T16:46:52.194Z,7.40
2022-11-17T16:49:19.911Z,7.30
2022-11-17T16:51:48.998Z,7.40
2022-11-17T16:54:16.791Z,7.40
2022-11-17T16:56:43.789Z,7.40
2022-11-17T16:59:11.393Z,7.40
2022-11-17T17:01:38.689Z,7.50
2022-11-17T17:04:07.820Z,7.50
2022-11-17T17:06:37.445Z,7.40
2022-11-17T17:09:06.825Z,7.40
2022-11-17T17:11:35.677Z,7.50
2022-11-17T17:14:04.959Z,7.40
2022-11-17T17:16:34.052Z,7.40
2022-11-17T17:19:04.094Z,7.40
2022-11-17T17:21:32.466Z,7.40
2022-11-17T17:23:59.844Z,7.30
2022-11-17T17:26:29.343Z,7.30
2022-11-17T17:29:00.093Z,7.20
2022-11-17T17:31:32.433Z,7.30
2022-11-17T17:34:00.329Z,7.20
2022-11-17T17:36:28.689Z,7.20
2022-11-17T17:38:57.269Z,7.20
2022-11-17T17:41:26.927Z,7.10
2022-11-17T17:43:57.024Z,7.20
2022-11-17T17:46:24.604Z,7.20
2022-11-17T17:48:51.740Z,7.20
2022-11-17T17:51:20.975Z,7.20
2022-11-17T17:53:50.052Z,7.10
2022-11-17T17:56:19.905Z,7.10
2022-11-17T17:58:48.782Z,7.10
2022-11-17T18:01:21.752Z,7.10
2022-11-17T18:03:50.502Z,7.10
2022-11-17T18:06:19.280Z,7.10
2022-11-17T18:08:47.290Z,7.10
2022-11-17T18:11:19.452Z,7.10
2022-11-17T18:13:48.983Z,7.10
2022-11-17T18:16:30.303Z,7.00
2022-11-17T18:19:02.969Z,7.00
2022-11-17T18:21:30.490Z,7.00
2022-11-17T18:23:58.857Z,7.10
2022-11-17T18:26:29.128Z,7.10
2022-11-17T18:29:01.482Z,7.10
2022-11-17T18:31:30.579Z,7.10
2022-11-17T18:34:00.062Z,7.10
2022-11-17T18:36:28.076Z,7.10
2022-11-17T18:38:55.178Z,7.10
2022-11-17T18:41:22.588Z,7.20
2022-11-17T18:43:49.844Z,7.20
2022-11-17T18:46:21.941Z,7.30
2022-11-17T18:48:51.642Z,7.30
2022-11-17T18:51:21.424Z,7.30
2022-11-17T18:53:53.066Z,7.30
2022-11-17T18:56:31.507Z,7.20
2022-11-17T18:58:59.496Z,7.20
2022-11-17T19:01:28.371Z,7.20
2022-11-17T19:03:57.419Z,7.30
2022-11-17T19:06:25.380Z,7.30
2022-11-17T19:08:52.758Z,7.20
2022-11-17T19:11:21.971Z,7.00
2022-11-17T19:13:49.499Z,6.90
2022-11-17T19:16:18.915Z,6.80
2022-11-17T19:18:48.174Z,6.70
2022-11-17T19:21:17.456Z,6.60
2022-11-17T19:23:51.376Z,6.60
2022-11-17T19:26:33.981Z,6.60
2022-11-17T19:29:04.225Z,6.60
2022-11-17T19:31:31.231Z,6.60
2022-11-17T19:33:58.960Z,6.60
2022-11-17T19:36:30.940Z,6.60
2022-11-17T19:38:59.861Z,6.60
2022-11-17T19:41:32.263Z,6.60
2022-11-17T19:44:00.789Z,6.60
2022-11-17T19:46:29.109Z,6.50
2022-11-17T19:48:57.101Z,6.70
2022-11-17T19:51:29.510Z,6.70
2022-11-17T19:53:58.440Z,6.70
2022-11-17T19:56:26.314Z,6.70
2022-11-17T19:58:54.116Z,6.60
2022-11-17T20:01:26.583Z,6.60
2022-11-17T20:03:54.325Z,6.60
2022-11-17T20:06:23.379Z,6.60
2022-11-17T20:08:50.382Z,6.60
2022-11-17T20:11:19.868Z,6.60
2022-11-17T20:13:47.290Z,6.50
2022-11-17T20:16:16.829Z,6.50
2022-11-17T20:18:45.004Z,6.60
2022-11-17T20:21:14.123Z,6.70
2022-11-17T20:23:41.201Z,6.70
2022-11-17T20:26:11.551Z,6.90
2022-11-17T20:28:38.974Z,6.90
2022-11-17T20:31:10.602Z,7.00
2022-11-17T20:33:41.816Z,7.10
2022-11-17T20:36:11.454Z,7.10
2022-11-17T20:38:38.576Z,7.10
2022-11-17T20:41:06.438Z,7.20
2022-11-17T20:43:34.503Z,7.10
2022-11-17T20:46:02.507Z,7.20
2022-11-17T20:48:31.552Z,7.10
2022-11-17T20:51:00.472Z,7.00
2022-11-17T20:53:28.238Z,7.00
2022-11-17T20:55:56.589Z,7.00
2022-11-17T20:58:24.717Z,7.00
2022-11-17T21:00:51.837Z,7.00
2022-11-17T21:03:18.998Z,7.10
2022-11-17T21:05:59.078Z,7.10
2022-11-17T21:08:37.924Z,7.20
2022-11-17T21:11:07.751Z,7.20
2022-11-17T21:13:35.956Z,7.10
2022-11-17T21:16:11.847Z,7.10
2022-11-17T21:18:44.349Z,7.10
2022-11-17T21:21:11.544Z,7.20
2022-11-17T21:23:39.976Z,7.20
2022-11-17T21:26:12.580Z,7.20
2022-11-17T21:28:41.105Z,7.20
2022-11-17T21:31:11.510Z,7.20
2022-11-17T21:33:38.912Z,7.20
2022-11-17T21:36:08.553Z,7.20
2022-11-17T21:38:35.661Z,7.20
2022-11-17T21:41:08.001Z,7.20
2022-11-17T21:43:39.594Z,7.10
2022-11-17T21:46:09.665Z,7.20
2022-11-17T21:48:37.296Z,7.20
2022-11-17T21:51:05.249Z,7.10
2022-11-17T21:53:32.149Z,7.20
2022-11-17T21:56:03.894Z,7.20
2022-11-17T21:58:30.860Z,7.10
2022-11-17T22:00:58.095Z,7.10
2022-11-17T22:03:25.281Z,7.10
2022-11-17T22:05:52.617Z,7.10
2022-11-17T22:08:20.271Z,7.20
2022-11-17T22:10:47.111Z,7.30
2022-11-17T22:13:13.939Z,7.30
2022-11-17T22:15:40.854Z,7.30
2022-11-17T22:18:07.742Z,7.30
2022-11-17T22:20:34.611Z,7.30
2022-11-17T22:23:01.566Z,7.30
2022-11-17T22:25:44.841Z,7.30
2022-11-17T22:28:12.365Z,7.30
2022-11-17T22:30:39.434Z,7.40
2022-11-17T22:33:06.295Z,7.40
2022-11-17T22:35:33.185Z,7.40
2022-11-17T22:37:59.970Z,7.30
2022-11-17T22:40:26.794Z,7.40
2022-11-17T22:42:53.656Z,7.40
2022-11-17T22:45:20.516Z,7.40
2022-11-17T22:47:47.360Z,7.30
2022-11-17T22:50:14.271Z,7.30
2022-11-17T22:52:41.380Z,7.30
2022-11-17T22:55:08.528Z,7.20
2022-11-17T22:57:35.390Z,7.10
2022-11-17T23:00:02.274Z,7.00
2022-11-17T23:02:29.185Z,7.00
2022-11-17T23:04:56.045Z,7.00
2022-11-17T23:07:23.291Z,6.90
2022-11-17T23:09:50.129Z,6.80
2022-11-17T23:12:16.985Z,6.80
2022-11-17T23:14:43.868Z,6.80
2022-11-17T23:17:10.738Z,6.70
2022-11-17T23:19:37.682Z,6.70
2022-11-17T23:22:04.529Z,6.70
2022-11-17T23:24:31.417Z,6.70
2022-11-17T23:26:58.401Z,6.60
2022-11-17T23:29:25.316Z,6.60
2022-11-17T23:31:52.194Z,6.50
2022-11-17T23:34:19.133Z,6.50
2022-11-17T23:36:46.345Z,6.40
2022-11-17T23:39:13.211Z,6.40
2022-11-17T23:41:40.108Z,6.30
2022-11-17T23:44:07.028Z,6.20
2022-11-17T23:46:33.954Z,6.20
2022-11-17T23:49:00.878Z,6.20
2022-11-17T23:51:29.749Z,6.20
2022-11-17T23:54:01.060Z,6.30
2022-11-17T23:56:31.061Z,6.30
2022-11-17T23:58:57.975Z,6.30
